首页
METAR-TAF:

METAR-TAF

机场 :

门罗, 路易斯安那州, 美国

纬度: 32-30-42N, 经度: 092-01-53W, 海拔: 24米

当前天气观测

该预报发布于50分钟前的19:53 UTC
风速5节,风向西转西南
温度 36°C
湿度 47%
气压 1014 hPa
能見度: 16.1公里
多云层高于5500英尺

METAR: KMLU 241953Z 25005KT 10SM BKN055 36/23 A2994 RMK AO2 SLP136 T03560233

时间: 15:43 (20:43 UTC)

预报

该预报发布于3小时和3分钟前的17:40 UTC
预报有效从24日的 18点(UTC)到 25日的 18点(UTC)
风速5节,风向多变
能見度: 10公里
少量云层高于4000英尺
散云层高于12000英尺
从 25日的 0300点(UTC)
风速节,风向
能見度: 10公里
天空无云
从 25日的 1000点(UTC)
风速5节,风向西南
能見度: 10公里
天空无云

TAF: KMLU 241740Z 2418/2518 VRB05KT P6SM FEW040 SCT120 FM250300 00000KT P6SM SKC FM251000 23005KT P6SM SKC

超过4000个机场的气象观测和天气预报(METAR&TAF报告)。

可查询的气象台以黄色和红色小点在地图上表示。

将鼠标移到小点上方,可查看气象台名称。

然后点击查看天气观测和预报。

如需切换地图:点击带黑十字的绿色按钮放大地图;点击带横线的绿色按钮缩小地图;或者点击绿色箭头查看邻近地区的地图。


METAR-TAF: